Архив погоды в Димитровграде

Метеограмма Димитровград
Суббота, 26 Мая
Время местн. Темп Ветер Видим Явления Облачность нижн/средн/верх Атм. давл. Влжн Точка росы ВНГО R Сост. почвы Tg s
Напр Скр Прв ур.ст ур.м изм
06:00 +7° С 3 - 10 км - ясно 764 770 +1.3 62% +0.3° более 2.5 км - Влажная (без луж) - -
03:00 +5.3° С 2 - 10 км - ясно 762 769 +1.1 64% -1° более 2.5 км - - - -
00:00 +6.5° С 2 - 10 км - ясно 761 768 +0.8 59% -1° более 2.5 км - - - -
Пятница, 25 Мая
Время местн. Темп Ветер Видим Явления Облачность нижн/средн/верх Атм. давл. Влжн Точка росы ВНГО R Сост. почвы Tg s
Напр Скр Прв ур.ст ур.м изм
21:00 +8.5° С 2 - 10 км - ясно 760 767 +1.4 45% -2.6° более 2.5 км - - - -
18:00 +12.7° С 3 - 10 км - переменная облачность 759 766 +1.2 39% -0.8° 1 км - - - -
15:00 +13.8° С 4 11 10 км - облачно 758 764 +1.5 52% +4° 1 км - - - -
12:00 +17.2° С 4 10 10 км - преимущественно облачно 756 763 +0.5 59% +9.1° 1 км - - - -
09:00 +15.8° С 2 - 10 км небо без изменений {ливневые осадки} облачно 756 762 +0.5 88% +13.8° 1 км - - - -
06:00 +15° З 1 - 10 км ливневый дождь облачно 755 762 +0.1 95% +14.2° 1 км - Влажная (без луж) - -
03:00 +15° С 1 - 10 км небо без изменений {ливневые осадки} облачно 755 762 -1.4 91% +13.5° 1 км - - - -
00:00 +16.3° С,С-З 2 - 10 км ливневый дождь облачно 756 763 -0.1 89% +14.5° 1 км - - - -
Четверг, 24 Мая
Время местн. Темп Ветер Видим Явления Облачность нижн/средн/верх Атм. давл. Влжн Точка росы ВНГО R Сост. почвы Tg s
Напр Скр Прв ур.ст ур.м изм
21:00 +17.9° З 1 - 10 км слабый ливневый дождь облачно 756 763 -0.5 84% +15.2° 1 км - - - -
18:00 +22.3° С-В 2 - 10 км - облачно 757 763 -1.4 55% +12.8° 1 км - - - -
15:00 +23.5° В,С-В 1 - 10 км небо без изменений {ливневые осадки} облачно 758 765 -0.9 48% +11.8° - - - - -
12:00 +23.8° С-З 1 - 10 км небо без изменений {ливневые осадки} облачно 759 765 -1 50% +12.7° 1 км - - - -
09:00 +20.9° З,Ю-З 1 - 10 км - облачно 760 767 +0.9 58% +12.3° 1 км - - - -
06:00 +16.1° С,С-В 1 - 10 км - облачно 759 766 0 69% +10.5° 1 км - Сухая (без трещин) - -
03:00 +15° З 1 - 10 км - облачно 759 766 -0.2 77% +11.1° 1 км - - - -
00:00 +16.1° Ю,Ю-З 1 - 10 км - облачно 759 766 -2.3 13% -12.1° 1 км - - - -
Среда, 23 Мая
Время местн. Темп Ветер Видим Явления Облачность нижн/средн/верх Атм. давл. Влжн Точка росы ВНГО R Сост. почвы Tg s
Напр Скр Прв ур.ст ур.м изм
21:00 +19.4° З 1 - 10 км - преимущественно облачно 762 768 -1.5 61% +11.8° 1 км - - - -
18:00 +24.2° Ю,Ю-З 1 - 10 км - облачно 763 770 -1.3 27% +3.8° 1 км - - - -
15:00 +24.5° Ю-З 2 - 10 км - облачно с прояснениями 764 770 -1.1 26% +4° 1 км - - - -
12:00 +25.2° Ю 2 - 10 км - переменная облачность 765 771 -1 21% +1.2° более 2.5 км - - - -
09:00 +21.9° Ю,Ю-З 1 - 10 км - ясно 766 772 +0.1 39% +7.2° более 2.5 км - - - -
06:00 +13.9° штиль 0 - 10 км - ясно 766 773 +0.2 63% +6.9° более 2.5 км - Сухая (без трещин) - -
03:00 +5.4° С-З 1 - 10 км - ясно 766 773 +0.3 93% +4.3° более 2.5 км - - - -